Weather at Drammen Heliport, Hospital

Public forecast

Using degrees Celsius for public forecast. Weather courtesy of forecast.io.

Closest aviation weather report (METAR) to Drammen Heliport, Hospital

Closest report is Moss Airport, Rygge, 28.5 nm (52.7 km) SE.

2024/05/27 22:50 (retrieved 12 minutes ago)

ENRY 272250Z AUTO 16006KT 9999 FEW014/// SCT016/// 14/13 Q1016

Closest aviation forecast (TAF) to Drammen Heliport, Hospital

Closest forecast is Moss Airport, Rygge, 28.5 nm (52.7 km) SE.

2024/05/27 18:38 (retrieved 4 hours ago)

TAF ENRY 271700Z 2718/2818 18008KT 9999 FEW008 BECMG 2718/2720 BKN008 PROB40 2720/2806 FEW008 BECMG 2806/2808 FEW040 TEMPO 2810/2813 SCT025TCU TEMPO 2813/2818 34015G25KT 4000 TSRA BKN018CB